createdAt,value
2018-03-08T00:00:10.048Z,17.5
2018-03-08T00:01:10.066Z,17.5
2018-03-08T00:02:10.063Z,17.5
2018-03-08T00:03:10.078Z,17.5
2018-03-08T00:04:10.043Z,17.5
2018-03-08T00:05:10.036Z,17.5
2018-03-08T00:06:10.052Z,17.5
2018-03-08T00:07:10.120Z,17.5
2018-03-08T00:08:10.080Z,17.5
2018-03-08T00:09:10.060Z,17.5
2018-03-08T00:10:10.054Z,17.5
2018-03-08T00:11:10.053Z,17.5
2018-03-08T00:12:10.051Z,17.5
2018-03-08T00:13:10.087Z,17.5
2018-03-08T00:14:10.042Z,17.5
2018-03-08T00:15:10.053Z,17.5
2018-03-08T00:16:10.051Z,17.5
2018-03-08T00:17:10.125Z,17.5
2018-03-08T00:18:10.073Z,17.5
2018-03-08T00:19:10.051Z,17.5
2018-03-08T00:20:12.104Z,17.5
2018-03-08T00:21:10.063Z,17.5
2018-03-08T00:22:10.061Z,17.5
2018-03-08T00:23:10.344Z,17.5
2018-03-08T00:24:10.050Z,17.5
2018-03-08T00:25:10.063Z,17.5
2018-03-08T00:26:10.094Z,17.5
2018-03-08T00:27:10.054Z,17.25
2018-03-08T00:28:10.093Z,17.5
2018-03-08T00:29:10.038Z,17.5
2018-03-08T00:30:10.070Z,17.25
2018-03-08T00:31:10.067Z,17.25
2018-03-08T00:32:10.094Z,17.25
2018-03-08T00:33:10.067Z,17.25
2018-03-08T00:34:10.068Z,17.25
2018-03-08T00:35:10.028Z,17.25
2018-03-08T00:36:10.093Z,17.25
2018-03-08T00:37:10.040Z,17.25
2018-03-08T00:38:10.226Z,17.25
2018-03-08T00:39:10.320Z,17.25
2018-03-08T00:40:10.063Z,17.25
2018-03-08T00:41:10.042Z,17.25
2018-03-08T00:42:10.110Z,17.25
2018-03-08T00:43:10.045Z,17.25
2018-03-08T00:44:10.066Z,17.25
2018-03-08T00:45:10.111Z,17.25
2018-03-08T00:46:10.057Z,17.25
2018-03-08T00:47:10.061Z,17.25
2018-03-08T00:48:10.039Z,17.25
2018-03-08T00:49:10.036Z,17.25
2018-03-08T00:50:10.040Z,17.25
2018-03-08T00:51:10.060Z,17.25
2018-03-08T00:52:10.051Z,17.25
2018-03-08T00:53:10.031Z,17.25
2018-03-08T00:54:10.041Z,17.25
2018-03-08T00:55:10.039Z,17.25
2018-03-08T00:56:10.083Z,17.25
2018-03-08T00:57:10.052Z,17.25
2018-03-08T00:58:10.043Z,17.25
2018-03-08T00:59:10.026Z,17.25
2018-03-08T01:00:10.037Z,17.25
2018-03-08T01:01:10.071Z,17.25
2018-03-08T01:02:10.128Z,17.25
2018-03-08T01:03:10.105Z,17.25
2018-03-08T01:04:10.037Z,17.25
2018-03-08T01:05:10.105Z,17.25
2018-03-08T01:06:10.049Z,17.25
2018-03-08T01:07:10.039Z,17.25
2018-03-08T01:08:10.036Z,17.25
2018-03-08T01:09:10.153Z,17.25
2018-03-08T01:10:10.081Z,17.25
2018-03-08T01:11:10.130Z,17.25
2018-03-08T01:12:10.052Z,17.25
2018-03-08T01:13:10.076Z,17.25
2018-03-08T01:14:10.031Z,17.25
2018-03-08T01:15:10.074Z,17.25
2018-03-08T01:16:10.060Z,17.25
2018-03-08T01:17:10.028Z,17.25
2018-03-08T01:18:10.032Z,17.25
2018-03-08T01:19:10.022Z,17.25
2018-03-08T01:20:10.028Z,17.25
2018-03-08T01:21:10.038Z,17.25
2018-03-08T01:22:10.031Z,17.25
2018-03-08T01:23:10.028Z,17.25
2018-03-08T01:24:10.025Z,17.25
2018-03-08T01:25:10.035Z,17.25
2018-03-08T01:26:10.031Z,17.25
2018-03-08T01:27:10.274Z,17.25
2018-03-08T01:28:10.035Z,17.25
2018-03-08T01:29:10.026Z,17.25
2018-03-08T01:30:10.025Z,17.25
2018-03-08T01:31:10.032Z,17
2018-03-08T01:32:10.107Z,17.25
2018-03-08T01:33:10.023Z,17.25
2018-03-08T01:34:10.029Z,17
2018-03-08T01:35:10.086Z,17
2018-03-08T01:36:10.028Z,17.25
2018-03-08T01:37:10.034Z,17
2018-03-08T01:38:10.023Z,17
2018-03-08T01:39:10.080Z,17
2018-03-08T01:40:10.036Z,17
2018-03-08T01:41:10.017Z,17
2018-03-08T01:42:10.032Z,17
2018-03-08T01:43:10.055Z,17
2018-03-08T01:44:10.033Z,17
2018-03-08T01:45:10.034Z,17
2018-03-08T01:46:10.032Z,17
2018-03-08T01:47:10.012Z,17
2018-03-08T01:48:10.144Z,17
2018-03-08T01:49:10.054Z,17
2018-03-08T01:50:10.014Z,17
2018-03-08T01:51:10.038Z,17
2018-03-08T01:52:10.033Z,17
2018-03-08T01:53:10.012Z,17
2018-03-08T01:54:10.030Z,17
2018-03-08T01:55:10.057Z,17
2018-03-08T01:56:10.029Z,17
2018-03-08T01:57:10.016Z,17
2018-03-08T01:58:10.018Z,17
2018-03-08T01:59:10.047Z,17
2018-03-08T02:00:10.021Z,17
2018-03-08T02:01:10.012Z,17
2018-03-08T02:02:10.069Z,17
2018-03-08T02:03:10.019Z,17
2018-03-08T02:04:10.035Z,17
2018-03-08T02:05:10.033Z,17
2018-03-08T02:06:10.022Z,17
2018-03-08T02:07:10.019Z,17
2018-03-08T02:08:10.008Z,17
2018-03-08T02:09:10.012Z,17
2018-03-08T02:10:10.044Z,17
2018-03-08T02:11:10.002Z,17
2018-03-08T02:12:10.012Z,17
2018-03-08T02:13:10.021Z,17
2018-03-08T02:14:10.025Z,17
2018-03-08T02:15:10.020Z,17
2018-03-08T02:16:10.014Z,17
2018-03-08T02:17:10.008Z,17
2018-03-08T02:18:10.018Z,17
2018-03-08T02:19:09.999Z,17
2018-03-08T02:20:10.049Z,17
2018-03-08T02:21:10.001Z,17
2018-03-08T02:22:09.993Z,17
2018-03-08T02:23:10.008Z,17
2018-03-08T02:24:10.042Z,17
2018-03-08T02:25:10.024Z,17
2018-03-08T02:26:10.006Z,17
2018-03-08T02:27:10.011Z,17
2018-03-08T02:28:10.000Z,17
2018-03-08T02:29:10.044Z,17
2018-03-08T02:30:10.021Z,17
2018-03-08T02:31:10.024Z,17
2018-03-08T02:32:10.013Z,17
2018-03-08T02:33:09.996Z,17
2018-03-08T02:34:10.002Z,17
2018-03-08T02:35:10.027Z,17
2018-03-08T02:36:10.261Z,17
2018-03-08T02:37:10.023Z,17
2018-03-08T02:38:09.993Z,17
2018-03-08T02:39:10.053Z,17
2018-03-08T02:40:09.996Z,17
2018-03-08T02:41:10.050Z,17
2018-03-08T02:42:10.013Z,17
2018-03-08T02:43:10.023Z,17
2018-03-08T02:44:10.004Z,17
2018-03-08T02:45:10.023Z,17
2018-03-08T02:46:10.030Z,17
2018-03-08T02:47:10.030Z,17
2018-03-08T02:48:10.017Z,17
2018-03-08T02:49:10.010Z,17
2018-03-08T02:50:10.032Z,17
2018-03-08T02:51:10.018Z,17
2018-03-08T02:52:10.042Z,16.75
2018-03-08T02:53:10.025Z,16.75
2018-03-08T02:54:10.016Z,16.75
2018-03-08T02:55:10.014Z,16.75
2018-03-08T02:56:09.997Z,16.75
2018-03-08T02:57:10.052Z,16.75
2018-03-08T02:58:10.001Z,16.75
2018-03-08T02:59:10.281Z,16.75
2018-03-08T03:00:10.009Z,16.75
2018-03-08T03:01:10.000Z,16.75
2018-03-08T03:02:10.052Z,16.75
2018-03-08T03:03:10.101Z,16.75
2018-03-08T03:04:10.034Z,16.75
2018-03-08T03:05:10.018Z,16.75
2018-03-08T03:06:09.984Z,16.75
2018-03-08T03:07:09.990Z,16.75
2018-03-08T03:08:09.988Z,16.75
2018-03-08T03:09:09.975Z,16.75
2018-03-08T03:10:10.003Z,16.75
2018-03-08T03:11:10.029Z,16.75
2018-03-08T03:12:09.994Z,16.75
2018-03-08T03:13:09.999Z,16.75
2018-03-08T03:14:09.999Z,16.75
2018-03-08T03:15:09.997Z,16.75
2018-03-08T03:16:09.999Z,16.75
2018-03-08T03:17:09.986Z,16.75
2018-03-08T03:18:09.976Z,16.75
2018-03-08T03:19:09.987Z,16.75
2018-03-08T03:20:10.031Z,16.75
2018-03-08T03:21:09.989Z,16.75
2018-03-08T03:22:09.991Z,16.75
2018-03-08T03:23:09.984Z,16.75
2018-03-08T03:24:10.058Z,16.75
2018-03-08T03:25:10.004Z,16.75
2018-03-08T03:26:09.986Z,16.75
2018-03-08T03:27:09.996Z,16.75
2018-03-08T03:28:09.985Z,16.75
2018-03-08T03:29:09.997Z,16.75
2018-03-08T03:30:09.991Z,16.75
2018-03-08T03:31:09.992Z,16.75
2018-03-08T03:32:10.011Z,16.75
2018-03-08T03:33:09.991Z,16.75
2018-03-08T03:34:10.014Z,16.75
2018-03-08T03:35:09.994Z,16.75
2018-03-08T03:36:10.316Z,16.75
2018-03-08T03:37:09.984Z,16.75
2018-03-08T03:38:09.995Z,16.75
2018-03-08T03:39:09.981Z,16.75
2018-03-08T03:40:09.978Z,16.75
2018-03-08T03:41:10.004Z,16.75
2018-03-08T03:42:09.994Z,16.75
2018-03-08T03:43:09.977Z,16.75
2018-03-08T03:44:09.983Z,16.75
2018-03-08T03:45:10.033Z,16.75
2018-03-08T03:46:10.028Z,16.75
2018-03-08T03:47:09.994Z,16.75
2018-03-08T03:48:09.994Z,16.75
2018-03-08T03:49:09.980Z,16.75
2018-03-08T03:50:09.978Z,16.75
2018-03-08T03:51:09.985Z,16.75
2018-03-08T03:52:09.997Z,16.75
2018-03-08T03:53:09.979Z,16.75
2018-03-08T03:54:09.972Z,16.75
2018-03-08T03:55:10.028Z,16.75
2018-03-08T03:56:09.976Z,16.75
2018-03-08T03:57:09.992Z,16.75
2018-03-08T03:58:09.983Z,16.75
2018-03-08T03:59:09.968Z,16.75
2018-03-08T04:00:10.035Z,16.75
2018-03-08T04:01:09.989Z,16.75
2018-03-08T04:02:09.976Z,16.75
2018-03-08T04:03:09.970Z,16.75
2018-03-08T04:04:09.974Z,16.75
2018-03-08T04:05:10.011Z,16.75
2018-03-08T04:06:09.963Z,16.75
2018-03-08T04:07:09.976Z,16.75
2018-03-08T04:08:09.973Z,16.75
2018-03-08T04:09:09.976Z,16.75
2018-03-08T04:10:09.988Z,16.75
2018-03-08T04:11:09.969Z,16.75
2018-03-08T04:12:10.146Z,16.75
2018-03-08T04:13:09.976Z,16.75
2018-03-08T04:14:09.966Z,16.75
2018-03-08T04:15:10.001Z,16.75
2018-03-08T04:16:09.975Z,16.75
2018-03-08T04:17:09.965Z,16.75
2018-03-08T04:18:09.968Z,16.75
2018-03-08T04:19:09.959Z,16.75
2018-03-08T04:20:09.964Z,16.75
2018-03-08T04:21:09.958Z,16.75
2018-03-08T04:22:09.962Z,16.75
2018-03-08T04:23:09.984Z,16.75
2018-03-08T04:24:09.974Z,16.75
2018-03-08T04:25:09.972Z,16.75
2018-03-08T04:26:09.962Z,16.75
2018-03-08T04:27:09.972Z,16.75
2018-03-08T04:28:09.965Z,16.75
2018-03-08T04:29:09.968Z,16.75
2018-03-08T04:30:10.066Z,16.75
2018-03-08T04:31:10.050Z,16.75
2018-03-08T04:32:10.040Z,16.75
2018-03-08T04:33:10.043Z,16.5
2018-03-08T04:34:10.040Z,16.75
2018-03-08T04:35:10.059Z,16.75
2018-03-08T04:36:10.044Z,16.75
2018-03-08T04:37:10.062Z,16.5
2018-03-08T04:38:10.036Z,16.5
2018-03-08T04:39:10.049Z,16.5
2018-03-08T04:40:10.031Z,16.5
2018-03-08T04:41:10.038Z,16.5
2018-03-08T04:42:10.047Z,16.5
2018-03-08T04:43:10.038Z,16.5
2018-03-08T04:44:10.042Z,16.5
2018-03-08T04:45:10.050Z,16.5
2018-03-08T04:46:10.037Z,16.5
2018-03-08T04:47:10.034Z,16.5
2018-03-08T04:48:10.100Z,16.5
2018-03-08T04:49:10.071Z,16.5
2018-03-08T04:50:10.018Z,16.5
2018-03-08T04:51:10.007Z,16.5
2018-03-08T04:52:09.978Z,16.5
2018-03-08T04:53:10.319Z,16.5
2018-03-08T04:54:10.021Z,16.5
2018-03-08T04:55:10.030Z,16.5
2018-03-08T04:56:09.996Z,16.5
2018-03-08T04:57:10.028Z,16.5
2018-03-08T04:58:10.034Z,16.5
2018-03-08T04:59:09.994Z,16.75
2018-03-08T05:00:10.003Z,16.5
2018-03-08T05:01:10.007Z,16.75
2018-03-08T05:02:10.003Z,16.75
2018-03-08T05:03:10.058Z,16.75
2018-03-08T05:04:10.103Z,16.5
2018-03-08T05:05:09.996Z,16.75
2018-03-08T05:06:10.007Z,16.5
2018-03-08T05:07:10.018Z,16.75
2018-03-08T05:08:09.993Z,16.75
2018-03-08T05:09:10.023Z,16.75
2018-03-08T05:10:10.130Z,16.75
2018-03-08T05:11:10.008Z,16.75
2018-03-08T05:12:10.024Z,16.75
2018-03-08T05:13:10.023Z,16.75
2018-03-08T05:14:10.031Z,16.75
2018-03-08T05:15:10.025Z,16.75
2018-03-08T05:16:10.006Z,16.75
2018-03-08T05:17:10.011Z,16.75
2018-03-08T05:18:10.021Z,16.75
2018-03-08T05:19:10.271Z,16.75
2018-03-08T05:20:10.005Z,16.75
2018-03-08T05:21:10.015Z,17
2018-03-08T05:22:09.956Z,17
2018-03-08T05:23:09.955Z,17
2018-03-08T05:24:10.026Z,17
2018-03-08T05:25:10.017Z,17
2018-03-08T05:26:10.012Z,17
2018-03-08T05:27:10.008Z,17
2018-03-08T05:28:09.980Z,17
2018-03-08T05:29:10.278Z,17
2018-03-08T05:30:09.989Z,17
2018-03-08T05:31:10.004Z,17
2018-03-08T05:32:09.967Z,17
2018-03-08T05:33:09.960Z,17
2018-03-08T05:34:09.960Z,17
2018-03-08T05:35:09.939Z,17
2018-03-08T05:36:09.939Z,17
2018-03-08T05:37:09.951Z,17
2018-03-08T05:38:09.942Z,17
2018-03-08T05:39:09.951Z,17.25
2018-03-08T05:40:09.980Z,17
2018-03-08T05:41:09.944Z,17.25
2018-03-08T05:42:09.964Z,17.25
2018-03-08T05:43:09.945Z,17.25
2018-03-08T05:44:09.942Z,17.25
2018-03-08T05:45:10.206Z,17.25
2018-03-08T05:46:09.945Z,17.25
2018-03-08T05:47:09.945Z,17.25
2018-03-08T05:48:09.945Z,17.25
2018-03-08T05:49:09.932Z,17.25
2018-03-08T05:50:09.962Z,17.25
2018-03-08T05:51:09.964Z,17.25
2018-03-08T05:52:09.936Z,17.25
2018-03-08T05:53:09.966Z,17.25
2018-03-08T05:54:09.935Z,17.25
2018-03-08T05:55:09.931Z,17.25
2018-03-08T05:56:09.967Z,17.25
2018-03-08T05:57:09.933Z,17.25
2018-03-08T05:58:09.941Z,17.25
2018-03-08T05:59:09.934Z,17.25
2018-03-08T06:00:09.934Z,17.25
2018-03-08T06:01:09.934Z,17.25
2018-03-08T06:02:09.937Z,17.25
2018-03-08T06:03:09.936Z,17.25
2018-03-08T06:04:09.934Z,17.25
2018-03-08T06:05:09.953Z,17.25
2018-03-08T06:06:09.964Z,17.25
2018-03-08T06:07:09.934Z,17.25
2018-03-08T06:08:09.943Z,17.25
2018-03-08T06:09:09.936Z,17.5
2018-03-08T06:10:09.935Z,17.5
2018-03-08T06:11:09.959Z,17.5
2018-03-08T06:12:09.958Z,17.5
2018-03-08T06:13:09.928Z,17.5
2018-03-08T06:14:09.932Z,17.5
2018-03-08T06:15:09.941Z,17.5
2018-03-08T06:16:09.927Z,17.5
2018-03-08T06:17:09.950Z,17.5
2018-03-08T06:18:09.930Z,17.5
2018-03-08T06:19:09.928Z,17.5
2018-03-08T06:20:09.932Z,17.5
2018-03-08T06:21:09.933Z,17.5
2018-03-08T06:22:09.946Z,17.5
2018-03-08T06:23:09.934Z,17.5
2018-03-08T06:24:09.929Z,17.5
2018-03-08T06:25:09.924Z,17.5
2018-03-08T06:26:10.024Z,17.5
2018-03-08T06:27:09.960Z,17.5
2018-03-08T06:28:09.932Z,17.5
2018-03-08T06:29:09.934Z,17.5
2018-03-08T06:30:09.952Z,17.5
2018-03-08T06:31:09.929Z,17.5
2018-03-08T06:32:09.947Z,17.5
2018-03-08T06:33:09.920Z,17.5
2018-03-08T06:34:09.921Z,17.5
2018-03-08T06:35:09.909Z,17.5
2018-03-08T06:36:09.928Z,17.5
2018-03-08T06:37:10.231Z,17.5
2018-03-08T06:38:09.929Z,17.5
2018-03-08T06:39:09.930Z,17.75
2018-03-08T06:40:09.934Z,17.75
2018-03-08T06:41:09.923Z,17.5
2018-03-08T06:42:09.950Z,17.75
2018-03-08T06:43:09.921Z,17.75
2018-03-08T06:44:09.931Z,17.75
2018-03-08T06:45:09.921Z,17.75
2018-03-08T06:46:09.919Z,17.75
2018-03-08T06:47:09.943Z,17.75
2018-03-08T06:48:09.948Z,17.75
2018-03-08T06:49:09.929Z,17.75
2018-03-08T06:50:09.932Z,17.75
2018-03-08T06:51:09.904Z,17.75
2018-03-08T06:52:09.917Z,17.75
2018-03-08T06:53:10.192Z,17.75
2018-03-08T06:54:09.904Z,17.75
2018-03-08T06:55:09.902Z,17.75
2018-03-08T06:56:09.928Z,17.75
2018-03-08T06:57:09.924Z,17.75
2018-03-08T06:58:09.939Z,17.75
2018-03-08T06:59:09.915Z,17.75
2018-03-08T07:00:09.912Z,17.75
2018-03-08T07:01:09.926Z,17.75
2018-03-08T07:02:09.921Z,17.75
2018-03-08T07:03:09.929Z,17.75
2018-03-08T07:04:09.974Z,17.75
2018-03-08T07:05:10.041Z,17.75
2018-03-08T07:06:09.908Z,17.75
2018-03-08T07:07:09.917Z,17.75
2018-03-08T07:08:09.918Z,17.75
2018-03-08T07:09:09.910Z,17.75
2018-03-08T07:10:09.915Z,17.75
2018-03-08T07:11:09.921Z,17.75
2018-03-08T07:12:09.909Z,17.75
2018-03-08T07:13:09.937Z,17.75
2018-03-08T07:14:09.915Z,17.75
2018-03-08T07:15:09.916Z,17.75
2018-03-08T07:16:09.991Z,17.75
2018-03-08T07:17:09.906Z,17.75
2018-03-08T07:18:09.913Z,17.75
2018-03-08T07:19:09.917Z,17.75
2018-03-08T07:20:09.914Z,17.75
2018-03-08T07:21:09.934Z,17.75
2018-03-08T07:22:09.915Z,17.75
2018-03-08T07:23:09.919Z,17.75
2018-03-08T07:24:09.905Z,17.75
2018-03-08T07:25:10.010Z,17.75
2018-03-08T07:26:09.931Z,17.75
2018-03-08T07:27:09.914Z,17.75
2018-03-08T07:28:09.898Z,17.75
2018-03-08T07:29:09.915Z,17.75
2018-03-08T07:30:09.906Z,17.75
2018-03-08T07:31:09.930Z,17.75
2018-03-08T07:32:09.927Z,17.75
2018-03-08T07:33:09.915Z,17.75
2018-03-08T07:34:09.912Z,17.75
2018-03-08T07:35:10.061Z,17.75
2018-03-08T07:36:09.910Z,17.75
2018-03-08T07:37:09.926Z,17.75
2018-03-08T07:38:09.900Z,17.75
2018-03-08T07:39:09.902Z,17.75
2018-03-08T07:40:09.920Z,17.75
2018-03-08T07:41:09.913Z,17.75
2018-03-08T07:42:09.941Z,17.75
2018-03-08T07:43:09.908Z,17.75
2018-03-08T07:44:09.921Z,17.75
2018-03-08T07:45:09.919Z,17.75
2018-03-08T07:46:09.910Z,17.75
2018-03-08T07:47:09.912Z,17.75
2018-03-08T07:48:09.909Z,17.75
2018-03-08T07:49:09.900Z,17.75
2018-03-08T07:50:09.908Z,17.75
2018-03-08T07:51:09.895Z,17.75
2018-03-08T07:52:09.906Z,17.75
2018-03-08T07:53:09.899Z,17.75
2018-03-08T07:54:09.910Z,17.75
2018-03-08T07:55:09.918Z,17.75
2018-03-08T07:56:09.901Z,17.75
2018-03-08T07:57:09.903Z,17.75
2018-03-08T07:58:09.918Z,17.75
2018-03-08T07:59:09.904Z,17.75
2018-03-08T08:00:09.897Z,17.75
2018-03-08T08:01:09.898Z,17.75
2018-03-08T08:02:09.975Z,17.75
2018-03-08T08:03:09.893Z,17.75
2018-03-08T08:04:09.914Z,17.75
2018-03-08T08:05:09.895Z,17.75
2018-03-08T08:06:09.896Z,18
2018-03-08T08:07:09.906Z,18
2018-03-08T08:08:10.195Z,17.75
2018-03-08T08:09:09.952Z,18
2018-03-08T08:10:09.906Z,18
2018-03-08T08:11:09.895Z,18
2018-03-08T08:12:09.891Z,18
2018-03-08T08:13:09.922Z,18
2018-03-08T08:14:09.893Z,18
2018-03-08T08:15:09.887Z,18
2018-03-08T08:16:09.890Z,18
2018-03-08T08:17:09.899Z,18
2018-03-08T08:18:09.916Z,18
2018-03-08T08:19:09.905Z,18
2018-03-08T08:20:09.909Z,18
2018-03-08T08:21:10.143Z,18
2018-03-08T08:22:09.886Z,18
2018-03-08T08:23:09.894Z,18
2018-03-08T08:24:09.910Z,18
2018-03-08T08:25:09.896Z,18
2018-03-08T08:26:09.896Z,18
2018-03-08T08:27:09.895Z,18
2018-03-08T08:28:09.911Z,18
2018-03-08T08:29:09.895Z,18
2018-03-08T08:30:09.900Z,18
2018-03-08T08:31:09.890Z,18
2018-03-08T08:32:09.886Z,18
2018-03-08T08:33:09.891Z,18
2018-03-08T08:34:10.028Z,18
2018-03-08T08:35:09.883Z,18
2018-03-08T08:36:09.932Z,18
2018-03-08T08:37:09.881Z,18
2018-03-08T08:38:09.900Z,18
2018-03-08T08:39:09.908Z,18
2018-03-08T08:40:09.897Z,18
2018-03-08T08:41:09.878Z,18
2018-03-08T08:42:09.891Z,18
2018-03-08T08:43:09.883Z,18.25
2018-03-08T08:44:09.884Z,18
2018-03-08T08:45:09.878Z,18
2018-03-08T08:46:09.871Z,18.25
2018-03-08T08:47:09.867Z,18
2018-03-08T08:48:09.878Z,18.25
2018-03-08T08:49:09.884Z,18.25
2018-03-08T08:50:09.896Z,18.25
2018-03-08T08:51:09.877Z,18.25
2018-03-08T08:52:09.886Z,18.25
2018-03-08T08:53:09.879Z,18.25
2018-03-08T08:54:09.922Z,18.25
2018-03-08T08:55:09.884Z,18.25
2018-03-08T08:56:09.887Z,18.25
2018-03-08T08:57:09.865Z,18.25
2018-03-08T08:58:09.871Z,18.25
2018-03-08T08:59:09.869Z,18.25
2018-03-08T09:00:09.942Z,18.25
2018-03-08T09:01:09.887Z,18.25
2018-03-08T09:02:09.879Z,18.25
2018-03-08T09:03:10.155Z,18.25
2018-03-08T09:04:09.880Z,18.25
2018-03-08T09:05:09.940Z,18.25
2018-03-08T09:06:09.843Z,18.25
2018-03-08T09:07:09.876Z,18.25
2018-03-08T09:08:09.891Z,18.25
2018-03-08T09:09:09.878Z,18.25
2018-03-08T09:10:09.877Z,18.25
2018-03-08T09:11:09.898Z,18.25
2018-03-08T09:12:09.869Z,18.25
2018-03-08T09:13:09.901Z,18.25
2018-03-08T09:14:09.876Z,18.25
2018-03-08T09:15:09.933Z,18.25
2018-03-08T09:16:09.863Z,18.25
2018-03-08T09:17:09.882Z,18.25
2018-03-08T09:18:09.883Z,18.25
2018-03-08T09:19:09.862Z,18.25
2018-03-08T09:20:09.866Z,18.25
2018-03-08T09:21:09.860Z,18.25
2018-03-08T09:22:09.876Z,18.25
2018-03-08T09:23:09.896Z,18.25
2018-03-08T09:24:09.882Z,18.25
2018-03-08T09:25:09.874Z,18.25
2018-03-08T09:26:09.864Z,18.25
2018-03-08T09:27:09.876Z,18.25
2018-03-08T09:28:09.863Z,18.25
2018-03-08T09:29:09.864Z,18.25
2018-03-08T09:30:09.886Z,18.25
2018-03-08T09:31:09.871Z,18.25
2018-03-08T09:32:09.911Z,18.25
2018-03-08T09:33:09.869Z,18.25
2018-03-08T09:34:09.863Z,18.25
2018-03-08T09:35:09.861Z,18.25
2018-03-08T09:36:09.855Z,18.25
2018-03-08T09:37:09.866Z,18.25
2018-03-08T09:38:09.907Z,18.25
2018-03-08T09:39:09.870Z,18.25
2018-03-08T09:40:09.867Z,18.25
2018-03-08T09:41:09.851Z,18.25
2018-03-08T09:42:09.864Z,18.25
2018-03-08T09:43:09.869Z,18.25
2018-03-08T09:44:09.856Z,18.25
2018-03-08T09:45:09.846Z,18.25
2018-03-08T09:46:09.863Z,18.25
2018-03-08T09:47:09.861Z,18.25
2018-03-08T09:48:09.858Z,18.25
2018-03-08T09:49:10.048Z,18.25
2018-03-08T09:50:09.883Z,18.25
2018-03-08T09:51:09.870Z,18.25
2018-03-08T09:52:09.896Z,18.25
2018-03-08T09:53:09.858Z,18.25
2018-03-08T09:54:09.856Z,18.25
2018-03-08T09:55:09.855Z,18.25
2018-03-08T09:56:09.861Z,18.25
2018-03-08T09:57:09.869Z,18.25
2018-03-08T09:58:09.854Z,18.25
2018-03-08T09:59:09.859Z,18.25
2018-03-08T10:00:09.855Z,18.25
2018-03-08T10:01:09.869Z,18.5
2018-03-08T10:02:09.865Z,18.25
2018-03-08T10:03:09.845Z,18.25
2018-03-08T10:04:09.910Z,18.5
2018-03-08T10:05:09.860Z,18.25
2018-03-08T10:06:09.865Z,18.25
2018-03-08T10:07:09.866Z,18.25
2018-03-08T10:08:09.868Z,18.25
2018-03-08T10:09:09.886Z,18.25
2018-03-08T10:10:09.852Z,18.25
2018-03-08T10:11:09.855Z,18.25
2018-03-08T10:12:09.843Z,18.5
2018-03-08T10:13:10.131Z,18.5
2018-03-08T10:14:09.894Z,18.5
2018-03-08T10:15:09.849Z,18.5
2018-03-08T10:16:09.869Z,18.5
2018-03-08T10:17:09.850Z,18.5
2018-03-08T10:18:09.872Z,18.25
2018-03-08T10:19:09.880Z,18.5
2018-03-08T10:20:09.845Z,18.25
2018-03-08T10:21:09.844Z,18.25
2018-03-08T10:22:09.838Z,18.25
2018-03-08T10:23:09.850Z,18.5
2018-03-08T10:24:09.874Z,18.25
2018-03-08T10:25:09.857Z,18.25
2018-03-08T10:26:10.160Z,18.25
2018-03-08T10:27:09.854Z,18.25
2018-03-08T10:28:09.894Z,18.25
2018-03-08T10:29:09.877Z,18.25
2018-03-08T10:30:09.847Z,18.5
2018-03-08T10:31:09.847Z,18.5
2018-03-08T10:32:09.838Z,18.5
2018-03-08T10:33:09.867Z,18.5
2018-03-08T10:34:09.853Z,18.25
2018-03-08T10:35:09.831Z,18.5
2018-03-08T10:36:09.825Z,18.5
2018-03-08T10:37:09.835Z,18.5
2018-03-08T10:38:09.855Z,18.5
2018-03-08T10:40:09.859Z,18.25
2018-03-08T10:41:10.163Z,18.5
2018-03-08T10:42:09.848Z,18.5
2018-03-08T10:43:09.854Z,18.5
2018-03-08T10:44:09.833Z,18.5
2018-03-08T10:45:10.008Z,18.5
2018-03-08T10:46:09.825Z,18.5
2018-03-08T10:47:09.844Z,18.5
2018-03-08T10:48:09.844Z,18.5
2018-03-08T10:49:09.873Z,18.5
2018-03-08T10:50:09.822Z,18.5
2018-03-08T10:51:09.842Z,18.5
2018-03-08T10:52:09.843Z,18.5
2018-03-08T10:53:09.820Z,18.5
2018-03-08T10:54:09.826Z,18.5
2018-03-08T10:55:09.845Z,18.5
2018-03-08T10:56:09.847Z,18.5
2018-03-08T10:57:09.823Z,18.5
2018-03-08T10:58:09.827Z,18.5
2018-03-08T10:59:09.856Z,18.5
2018-03-08T11:00:09.825Z,18.5
2018-03-08T11:01:09.835Z,18.5
2018-03-08T11:02:09.829Z,18.5
2018-03-08T11:03:10.092Z,18.5
2018-03-08T11:04:09.862Z,18.5
2018-03-08T11:05:09.840Z,18.5
2018-03-08T11:06:09.893Z,18.5
2018-03-08T11:07:09.985Z,18.5
2018-03-08T11:08:09.824Z,18.5
2018-03-08T11:09:09.894Z,18.5
2018-03-08T11:10:09.906Z,18.5
2018-03-08T11:11:09.835Z,18.5
2018-03-08T11:12:09.836Z,18.5
2018-03-08T11:13:09.834Z,18.5
2018-03-08T11:14:10.110Z,18.5
2018-03-08T11:15:09.820Z,18.5
2018-03-08T11:16:09.836Z,18.5
2018-03-08T11:17:09.836Z,18.5
2018-03-08T11:18:10.022Z,18.5
2018-03-08T11:19:09.864Z,18.5
2018-03-08T11:20:09.826Z,18.5
2018-03-08T11:21:09.842Z,18.5
2018-03-08T11:22:09.827Z,18.5
2018-03-08T11:23:09.859Z,18.5
2018-03-08T11:24:09.840Z,18.5
2018-03-08T11:25:09.841Z,18.5
2018-03-08T11:26:09.824Z,18.5
2018-03-08T11:27:09.824Z,18.5
2018-03-08T11:28:09.829Z,18.5
2018-03-08T11:29:09.835Z,18.5
2018-03-08T11:30:09.820Z,18.5
2018-03-08T11:31:09.839Z,18.5
2018-03-08T11:32:09.831Z,18.5
2018-03-08T11:33:09.828Z,18.5
2018-03-08T11:34:09.876Z,18.5
2018-03-08T11:35:09.840Z,18.5
2018-03-08T11:36:09.826Z,18.5
2018-03-08T11:37:09.819Z,18.5
2018-03-08T11:38:09.830Z,18.5
2018-03-08T11:39:09.840Z,18.5
2018-03-08T11:40:09.822Z,18.5
2018-03-08T11:41:09.822Z,18.5
2018-03-08T11:42:09.814Z,18.5
2018-03-08T11:43:09.848Z,18.5
2018-03-08T11:44:09.869Z,18.5
2018-03-08T11:45:09.842Z,18.5
2018-03-08T11:46:09.814Z,18.5
2018-03-08T11:47:09.827Z,18.5
2018-03-08T11:48:10.857Z,18.5
2018-03-08T11:49:09.826Z,18.5
2018-03-08T11:50:09.841Z,18.5
2018-03-08T11:51:09.830Z,18.5
2018-03-08T11:52:09.817Z,18.5
2018-03-08T11:53:09.834Z,18.5
2018-03-08T11:54:09.816Z,18.5
2018-03-08T11:55:09.851Z,18.5
2018-03-08T11:56:09.819Z,18.5
2018-03-08T11:57:09.813Z,18.5
2018-03-08T11:58:09.821Z,18.5
2018-03-08T11:59:09.812Z,18.5
2018-03-08T12:00:09.842Z,18.5
2018-03-08T12:01:09.822Z,18.5
2018-03-08T12:02:09.835Z,18.5
2018-03-08T12:03:09.814Z,18.5
2018-03-08T12:04:09.829Z,18.5
2018-03-08T12:05:09.818Z,18.5
2018-03-08T12:06:09.825Z,18.5
2018-03-08T12:07:09.812Z,18.5
2018-03-08T12:08:09.812Z,18.5
2018-03-08T12:09:09.823Z,18.5
2018-03-08T12:10:10.101Z,18.5
2018-03-08T12:11:09.821Z,18.5
2018-03-08T12:12:09.806Z,18.5
2018-03-08T12:13:09.819Z,18.5
2018-03-08T12:14:09.823Z,18.5
2018-03-08T12:15:09.845Z,18.5
2018-03-08T12:16:09.834Z,18.5
2018-03-08T12:17:09.807Z,18.5
2018-03-08T12:18:09.813Z,18.5
2018-03-08T12:19:09.816Z,18.5
2018-03-08T12:20:09.811Z,18.5
2018-03-08T12:21:09.806Z,18.5
2018-03-08T12:22:09.817Z,18.5
2018-03-08T12:23:09.941Z,18.5
2018-03-08T12:24:09.812Z,18.5
2018-03-08T12:25:09.810Z,18.5
2018-03-08T12:26:09.804Z,18.5
2018-03-08T12:27:09.809Z,18.5
2018-03-08T12:28:10.156Z,18.5
2018-03-08T12:29:09.813Z,18.5
2018-03-08T12:30:09.809Z,18.5
2018-03-08T12:31:09.814Z,18.5
2018-03-08T12:32:09.807Z,18.5
2018-03-08T12:33:09.660Z,18.5
2018-03-08T12:34:09.805Z,18.5
2018-03-08T12:35:09.810Z,18.5
2018-03-08T12:37:09.796Z,18.5
2018-03-08T12:38:09.796Z,18.5
2018-03-08T12:39:09.805Z,18.5
2018-03-08T12:40:09.798Z,18.5
2018-03-08T12:41:09.816Z,18.5
2018-03-08T12:42:09.802Z,18.5
2018-03-08T12:43:09.796Z,18.5
2018-03-08T12:44:09.803Z,18.5
2018-03-08T12:45:09.800Z,18.5
2018-03-08T12:46:09.830Z,18.5
2018-03-08T12:47:09.808Z,18.5
2018-03-08T12:48:09.803Z,18.5
2018-03-08T12:49:09.802Z,18.5
2018-03-08T12:50:09.822Z,18.5
2018-03-08T12:51:09.810Z,18.5
2018-03-08T12:52:09.787Z,18.5
2018-03-08T12:53:09.896Z,18.5
2018-03-08T12:54:09.811Z,18.5
2018-03-08T12:55:09.803Z,18.5
2018-03-08T12:56:09.814Z,18.5
2018-03-08T12:57:09.801Z,18.5
2018-03-08T12:58:09.806Z,18.5
2018-03-08T12:59:09.811Z,18.5
2018-03-08T13:00:09.797Z,18.5
2018-03-08T13:01:10.066Z,18.5
2018-03-08T13:02:09.842Z,18.5
2018-03-08T13:03:09.843Z,18.5
2018-03-08T13:04:09.791Z,18.5
2018-03-08T13:05:09.818Z,18.5
2018-03-08T13:06:10.085Z,18.5
2018-03-08T13:07:09.868Z,18.5
2018-03-08T13:08:09.893Z,18.5
2018-03-08T13:09:09.794Z,18.5
2018-03-08T13:10:09.790Z,18.5
2018-03-08T13:11:09.825Z,18.5
2018-03-08T13:12:09.799Z,18.5
2018-03-08T13:13:09.809Z,18.5
2018-03-08T13:14:09.794Z,18.5
2018-03-08T13:15:09.803Z,18.5
2018-03-08T13:16:09.814Z,18.5